sensor_id;sensor_type;location;lat;lon;timestamp;pressure;altitude;pressure_sealevel;temperature;humidity
25638;BME280;13496;51.040;13.680;2023-07-29T00:02:04;99097.16;;;25.73;41.67
25638;BME280;13496;51.040;13.680;2023-07-29T00:07:06;99102.09;;;25.59;41.74
25638;BME280;13496;51.040;13.680;2023-07-29T00:12:08;99092.00;;;25.61;41.79
25638;BME280;13496;51.040;13.680;2023-07-29T00:17:09;99093.41;;;25.69;41.63
25638;BME280;13496;51.040;13.680;2023-07-29T00:22:11;99097.16;;;25.73;41.72
25638;BME280;13496;51.040;13.680;2023-07-29T00:27:13;99103.53;;;25.72;41.32
25638;BME280;13496;51.040;13.680;2023-07-29T00:32:15;99101.66;;;25.67;41.51
25638;BME280;13496;51.040;13.680;2023-07-29T00:37:16;99097.03;;;25.57;41.84
25638;BME280;13496;51.040;13.680;2023-07-29T00:42:21;99090.13;;;25.56;41.74
25638;BME280;13496;51.040;13.680;2023-07-29T00:47:24;99098.84;;;25.52;42.02
25638;BME280;13496;51.040;13.680;2023-07-29T00:52:26;99096.03;;;25.64;42.02
25638;BME280;13496;51.040;13.680;2023-07-29T00:57:30;99086.28;;;25.47;42.41
25638;BME280;13496;51.040;13.680;2023-07-29T01:02:31;99083.88;;;25.46;42.33
25638;BME280;13496;51.040;13.680;2023-07-29T01:07:57;99080.44;;;25.45;42.06
25638;BME280;13496;51.040;13.680;2023-07-29T01:18:38;99079.88;;;25.43;42.01
25638;BME280;13496;51.040;13.680;2023-07-29T01:23:40;99072.44;;;25.40;42.21
25638;BME280;13496;51.040;13.680;2023-07-29T01:28:42;99075.09;;;25.40;42.04
25638;BME280;13496;51.040;13.680;2023-07-29T01:33:58;99064.47;;;25.40;42.20
25638;BME280;13496;51.040;13.680;2023-07-29T01:39:02;99060.44;;;25.38;42.20
25638;BME280;13496;51.040;13.680;2023-07-29T01:44:06;99064.69;;;25.39;42.01
25638;BME280;13496;51.040;13.680;2023-07-29T01:49:08;99061.25;;;25.38;41.63
25638;BME280;13496;51.040;13.680;2023-07-29T01:54:09;99065.50;;;25.39;41.88
25638;BME280;13496;51.040;13.680;2023-07-29T01:59:12;99067.59;;;25.37;42.01
25638;BME280;13496;51.040;13.680;2023-07-29T02:04:15;99059.88;;;25.35;42.20
25638;BME280;13496;51.040;13.680;2023-07-29T02:09:16;99054.56;;;25.35;41.96
25638;BME280;13496;51.040;13.680;2023-07-29T02:14:18;99064.66;;;25.33;41.89
25638;BME280;13496;51.040;13.680;2023-07-29T02:19:20;99061.19;;;25.33;42.49
25638;BME280;13496;51.040;13.680;2023-07-29T02:24:22;99061.19;;;25.33;42.06
25638;BME280;13496;51.040;13.680;2023-07-29T02:29:23;99066.72;;;25.31;42.10
25638;BME280;13496;51.040;13.680;2023-07-29T02:34:26;99064.88;;;25.32;41.99
25638;BME280;13496;51.040;13.680;2023-07-29T02:39:28;99067.53;;;25.32;41.76
25638;BME280;13496;51.040;13.680;2023-07-29T02:44:30;99083.72;;;25.30;41.90
25638;BME280;13496;51.040;13.680;2023-07-29T02:49:32;99096.22;;;25.30;41.92
25638;BME280;13496;51.040;13.680;2023-07-29T02:54:34;99096.44;;;25.28;42.08
25638;BME280;13496;51.040;13.680;2023-07-29T02:59:36;99095.09;;;25.26;41.76
25638;BME280;13496;51.040;13.680;2023-07-29T03:04:37;99097.75;;;25.26;42.10
25638;BME280;13496;51.040;13.680;2023-07-29T03:09:39;99094.31;;;25.25;42.18
25638;BME280;13496;51.040;13.680;2023-07-29T03:14:47;99104.09;;;25.25;42.18
25638;BME280;13496;51.040;13.680;2023-07-29T03:19:49;99103.78;;;25.21;42.37
25638;BME280;13496;51.040;13.680;2023-07-29T03:24:51;99107.50;;;25.20;42.62
25638;BME280;13496;51.040;13.680;2023-07-29T03:29:53;99104.03;;;25.20;42.07
25638;BME280;13496;51.040;13.680;2023-07-29T03:34:55;99100.81;;;25.18;42.33
25638;BME280;13496;51.040;13.680;2023-07-29T03:39:57;99093.13;;;25.16;41.93
25638;BME280;13496;51.040;13.680;2023-07-29T03:44:59;99095.50;;;25.18;42.05
25638;BME280;13496;51.040;13.680;2023-07-29T03:50:01;99085.94;;;25.17;41.92
25638;BME280;13496;51.040;13.680;2023-07-29T03:55:04;99082.25;;;25.18;42.15
25638;BME280;13496;51.040;13.680;2023-07-29T04:00:06;99085.16;;;25.16;42.04
25638;BME280;13496;51.040;13.680;2023-07-29T04:05:17;99088.88;;;25.15;42.17
25638;BME280;13496;51.040;13.680;2023-07-29T04:10:19;99089.66;;;25.16;42.21
25638;BME280;13496;51.040;13.680;2023-07-29T04:15:21;99094.41;;;25.14;41.91
25638;BME280;13496;51.040;13.680;2023-07-29T04:20:23;99094.19;;;25.15;41.90
25638;BME280;13496;51.040;13.680;2023-07-29T04:25:24;99090.72;;;25.15;41.95
25638;BME280;13496;51.040;13.680;2023-07-29T04:30:26;99088.88;;;25.15;41.88
25638;BME280;13496;51.040;13.680;2023-07-29T04:35:28;99095.22;;;25.14;41.92
25638;BME280;13496;51.040;13.680;2023-07-29T04:40:32;99100.28;;;25.16;41.92
25638;BME280;13496;51.040;13.680;2023-07-29T04:45:34;99091.75;;;25.14;41.62
25638;BME280;13496;51.040;13.680;2023-07-29T04:50:36;99096.03;;;25.15;41.79
25638;BME280;13496;51.040;13.680;2023-07-29T04:55:38;99085.41;;;25.15;41.97
25638;BME280;13496;51.040;13.680;2023-07-29T05:00:39;99080.09;;;25.15;41.68
25638;BME280;13496;51.040;13.680;2023-07-29T05:05:41;99083.00;;;25.13;41.63
25638;BME280;13496;51.040;13.680;2023-07-29T05:10:44;99076.09;;;25.12;41.27
25638;BME280;13496;51.040;13.680;2023-07-29T05:15:47;99087.50;;;25.13;41.55
25638;BME280;13496;51.040;13.680;2023-07-29T05:20:48;99084.63;;;25.14;41.74
25638;BME280;13496;51.040;13.680;2023-07-29T05:25:50;99076.88;;;25.13;41.70
25638;BME280;13496;51.040;13.680;2023-07-29T05:30:52;99072.63;;;25.12;41.55
25638;BME280;13496;51.040;13.680;2023-07-29T05:35:54;99063.88;;;25.11;41.93
25638;BME280;13496;51.040;13.680;2023-07-29T05:40:56;99069.19;;;25.11;42.35
25638;BME280;13496;51.040;13.680;2023-07-29T05:45:58;99062.25;;;25.10;42.42
25638;BME280;13496;51.040;13.680;2023-07-29T05:51:00;99064.91;;;25.10;42.30
25638;BME280;13496;51.040;13.680;2023-07-29T05:56:02;99047.13;;;25.10;42.20
25638;BME280;13496;51.040;13.680;2023-07-29T06:01:04;99055.66;;;25.13;42.39
25638;BME280;13496;51.040;13.680;2023-07-29T06:06:06;99055.31;;;25.09;42.35
25638;BME280;13496;51.040;13.680;2023-07-29T06:11:07;99053.00;;;25.13;42.71
25638;BME280;13496;51.040;13.680;2023-07-29T06:16:09;99039.47;;;25.14;42.56
25638;BME280;13496;51.040;13.680;2023-07-29T06:21:13;99041.88;;;25.16;42.28
25638;BME280;13496;51.040;13.680;2023-07-29T06:26:18;99040.28;;;25.15;42.35
25638;BME280;13496;51.040;13.680;2023-07-29T06:31:20;99048.78;;;25.17;42.20
25638;BME280;13496;51.040;13.680;2023-07-29T06:36:22;99052.22;;;25.17;42.42
25638;BME280;13496;51.040;13.680;2023-07-29T06:41:23;99059.97;;;25.19;42.15
25638;BME280;13496;51.040;13.680;2023-07-29T06:46:25;99064.22;;;25.20;42.00
25638;BME280;13496;51.040;13.680;2023-07-29T06:51:27;99067.44;;;25.22;42.15
25638;BME280;13496;51.040;13.680;2023-07-29T06:56:33;99054.97;;;25.22;41.88
25638;BME280;13496;51.040;13.680;2023-07-29T07:01:35;99056.81;;;25.22;41.81
25638;BME280;13496;51.040;13.680;2023-07-29T07:06:37;99047.00;;;25.22;41.81
25638;BME280;13496;51.040;13.680;2023-07-29T07:11:38;99048.59;;;25.23;41.70
25638;BME280;13496;51.040;13.680;2023-07-29T07:16:40;99048.09;;;25.26;42.35
25638;BME280;13496;51.040;13.680;2023-07-29T07:21:42;99042.53;;;25.28;42.02
25638;BME280;13496;51.040;13.680;2023-07-29T07:26:44;99025.56;;;25.29;42.14
25638;BME280;13496;51.040;13.680;2023-07-29T07:31:56;99018.63;;;25.28;42.29
25638;BME280;13496;51.040;13.680;2023-07-29T07:36:57;99018.41;;;25.29;42.18
25638;BME280;13496;51.040;13.680;2023-07-29T07:41:59;99017.88;;;25.32;41.90
25638;BME280;13496;51.040;13.680;2023-07-29T07:47:01;99005.44;;;25.33;42.10
25638;BME280;13496;51.040;13.680;2023-07-29T07:52:03;98995.34;;;25.35;41.99
25638;BME280;13496;51.040;13.680;2023-07-29T07:57:05;98998.00;;;25.35;41.88
25638;BME280;13496;51.040;13.680;2023-07-29T08:02:07;98995.91;;;25.37;41.98
25638;BME280;13496;51.040;13.680;2023-07-29T08:07:08;98984.22;;;25.38;41.87
25638;BME280;13496;51.040;13.680;2023-07-29T08:12:10;98984.78;;;25.40;41.98
25638;BME280;13496;51.040;13.680;2023-07-29T08:17:12;98971.22;;;25.42;41.55
25638;BME280;13496;51.040;13.680;2023-07-29T08:22:13;98980.56;;;25.44;41.86
25638;BME280;13496;51.040;13.680;2023-07-29T08:27:15;98978.22;;;25.48;41.77
25638;BME280;13496;51.040;13.680;2023-07-29T08:32:17;98981.66;;;25.48;41.96
25638;BME280;13496;51.040;13.680;2023-07-29T08:37:18;98974.22;;;25.50;41.80
25638;BME280;13496;51.040;13.680;2023-07-29T08:42:23;98966.81;;;25.52;42.03
25638;BME280;13496;51.040;13.680;2023-07-29T08:47:26;98974.28;;;25.55;41.77
25638;BME280;13496;51.040;13.680;2023-07-29T08:52:29;98974.28;;;25.55;41.85
25638;BME280;13496;51.040;13.680;2023-07-29T08:57:31;98982.78;;;25.57;41.66
25638;BME280;13496;51.040;13.680;2023-07-29T09:02:33;98978.84;;;25.60;41.62
25638;BME280;13496;51.040;13.680;2023-07-29T09:07:36;98982.28;;;25.61;41.86
25638;BME280;13496;51.040;13.680;2023-07-29T09:12:39;98974.31;;;25.61;41.88
25638;BME280;13496;51.040;13.680;2023-07-29T09:17:41;98989.75;;;25.64;41.95
25638;BME280;13496;51.040;13.680;2023-07-29T09:22:43;98979.94;;;25.64;42.00
25638;BME280;13496;51.040;13.680;2023-07-29T09:27:45;98970.91;;;25.65;41.89
25638;BME280;13496;51.040;13.680;2023-07-29T09:32:47;98967.19;;;25.66;42.09
25638;BME280;13496;51.040;13.680;2023-07-29T09:37:49;98963.22;;;25.69;41.64
25638;BME280;13496;51.040;13.680;2023-07-29T09:42:54;98971.75;;;25.71;41.73
25638;BME280;13496;51.040;13.680;2023-07-29T09:47:57;98972.28;;;25.73;41.51
25638;BME280;13496;51.040;13.680;2023-07-29T09:52:59;98965.94;;;25.74;41.89
25638;BME280;13496;51.040;13.680;2023-07-29T09:58:01;98969.38;;;25.74;41.76
25638;BME280;13496;51.040;13.680;2023-07-29T10:03:05;98985.84;;;25.76;41.88
25638;BME280;13496;51.040;13.680;2023-07-29T10:08:07;98977.88;;;25.76;41.66
25638;BME280;13496;51.040;13.680;2023-07-29T10:13:11;98977.06;;;25.71;42.66
25638;BME280;13496;51.040;13.680;2023-07-29T10:18:15;98965.94;;;25.74;42.58
25638;BME280;13496;51.040;13.680;2023-07-29T10:23:21;98953.72;;;25.78;42.72
25638;BME280;13496;51.040;13.680;2023-07-29T10:28:25;98951.63;;;25.80;43.02
25638;BME280;13496;51.040;13.680;2023-07-29T10:33:27;98953.25;;;25.81;43.46
25638;BME280;13496;51.040;13.680;2023-07-29T10:38:29;98938.13;;;25.81;43.79
25638;BME280;13496;51.040;13.680;2023-07-29T10:43:38;98947.16;;;25.86;43.81
25638;BME280;13496;51.040;13.680;2023-07-29T10:48:40;98958.88;;;25.85;44.34
25638;BME280;13496;51.040;13.680;2023-07-29T10:53:42;98950.88;;;25.85;44.64
25638;BME280;13496;51.040;13.680;2023-07-29T10:58:44;98943.19;;;25.88;44.07
25638;BME280;13496;51.040;13.680;2023-07-29T11:09:40;98935.75;;;25.90;44.02
25638;BME280;13496;51.040;13.680;2023-07-29T11:14:42;98932.53;;;25.88;45.40
25638;BME280;13496;51.040;13.680;2023-07-29T11:19:44;98930.97;;;25.87;45.63
25638;BME280;13496;51.040;13.680;2023-07-29T11:24:47;98945.88;;;25.93;44.16
25638;BME280;13496;51.040;13.680;2023-07-29T11:29:49;98945.88;;;25.93;43.53
25638;BME280;13496;51.040;13.680;2023-07-29T11:34:51;98933.94;;;25.96;43.15
25638;BME280;13496;51.040;13.680;2023-07-29T11:39:52;98937.13;;;25.98;43.37
25638;BME280;13496;51.040;13.680;2023-07-29T11:44:57;98921.19;;;25.98;43.21
25638;BME280;13496;51.040;13.680;2023-07-29T11:50:00;98927.31;;;25.98;42.93
25638;BME280;13496;51.040;13.680;2023-07-29T11:55:02;98932.63;;;25.98;43.64
25638;BME280;13496;51.040;13.680;2023-07-29T12:00:06;98928.09;;;25.99;43.42
25638;BME280;13496;51.040;13.680;2023-07-29T12:05:12;98926.78;;;26.01;43.22
25638;BME280;13496;51.040;13.680;2023-07-29T12:10:14;98923.06;;;26.02;42.80
25638;BME280;13496;51.040;13.680;2023-07-29T12:15:27;98918.53;;;26.03;42.92
25638;BME280;13496;51.040;13.680;2023-07-29T12:20:30;98923.63;;;26.04;42.62
25638;BME280;13496;51.040;13.680;2023-07-29T12:25:31;98913.50;;;26.06;42.54
25638;BME280;13496;51.040;13.680;2023-07-29T12:30:33;98895.47;;;26.09;42.52
25638;BME280;13496;51.040;13.680;2023-07-29T12:35:36;98902.13;;;26.11;42.56
25638;BME280;13496;51.040;13.680;2023-07-29T12:40:38;98894.44;;;26.15;42.42
25638;BME280;13496;51.040;13.680;2023-07-29T12:45:41;98887.78;;;26.17;42.98
25638;BME280;13496;51.040;13.680;2023-07-29T12:50:43;98880.34;;;26.19;42.40
25638;BME280;13496;51.040;13.680;2023-07-29T12:55:45;98876.09;;;26.18;42.32
25638;BME280;13496;51.040;13.680;2023-07-29T13:00:47;98869.22;;;26.22;42.52
25638;BME280;13496;51.040;13.680;2023-07-29T13:05:48;98854.84;;;26.23;42.67
25638;BME280;13496;51.040;13.680;2023-07-29T13:10:50;98849.25;;;26.25;42.37
25638;BME280;13496;51.040;13.680;2023-07-29T13:15:52;98862.03;;;26.28;42.14
25638;BME280;13496;51.040;13.680;2023-07-29T13:20:54;98862.03;;;26.28;42.10
25638;BME280;13496;51.040;13.680;2023-07-29T13:25:57;98856.19;;;26.31;42.37
25638;BME280;13496;51.040;13.680;2023-07-29T13:30:59;98864.72;;;26.33;42.31
25638;BME280;13496;51.040;13.680;2023-07-29T13:36:01;98882.28;;;26.39;42.28
25638;BME280;13496;51.040;13.680;2023-07-29T13:41:05;98864.75;;;26.43;42.06
25638;BME280;13496;51.040;13.680;2023-07-29T13:46:07;98875.13;;;26.45;42.57
25638;BME280;13496;51.040;13.680;2023-07-29T13:51:09;98870.41;;;26.52;42.28
25638;BME280;13496;51.040;13.680;2023-07-29T13:56:11;98866.41;;;26.49;42.61
25638;BME280;13496;51.040;13.680;2023-07-29T14:01:12;98873.59;;;26.49;42.93
25638;BME280;13496;51.040;13.680;2023-07-29T14:06:14;98870.69;;;26.56;42.35
25638;BME280;13496;51.040;13.680;2023-07-29T14:11:16;98864.28;;;26.57;42.44
25638;BME280;13496;51.040;13.680;2023-07-29T14:16:17;98857.66;;;26.59;42.42
25638;BME280;13496;51.040;13.680;2023-07-29T14:21:19;98843.28;;;26.60;42.16
25638;BME280;13496;51.040;13.680;2023-07-29T14:26:21;98840.34;;;26.62;42.33
25638;BME280;13496;51.040;13.680;2023-07-29T14:31:23;98835.03;;;26.62;42.53
25638;BME280;13496;51.040;13.680;2023-07-29T14:36:24;98830.75;;;26.66;42.40
25638;BME280;13496;51.040;13.680;2023-07-29T14:41:26;98821.72;;;26.62;42.43
25638;BME280;13496;51.040;13.680;2023-07-29T14:46:28;98820.41;;;26.69;42.39
25638;BME280;13496;51.040;13.680;2023-07-29T14:51:29;98816.41;;;26.72;42.05
25638;BME280;13496;51.040;13.680;2023-07-29T14:56:31;98814.03;;;26.75;41.91
25638;BME280;13496;51.040;13.680;2023-07-29T15:01:33;98817.47;;;26.76;42.52
25638;BME280;13496;51.040;13.680;2023-07-29T15:06:35;98821.19;;;26.80;42.06
25638;BME280;13496;51.040;13.680;2023-07-29T15:11:36;98824.41;;;26.82;42.04
25638;BME280;13496;51.040;13.680;2023-07-29T15:16:38;98814.56;;;26.77;41.92
25638;BME280;13496;51.040;13.680;2023-07-29T15:21:40;98812.16;;;26.86;42.06
25638;BME280;13496;51.040;13.680;2023-07-29T15:26:42;98821.75;;;26.82;41.54
25638;BME280;13496;51.040;13.680;2023-07-29T15:31:44;98797.53;;;26.84;41.80
25638;BME280;13496;51.040;13.680;2023-07-29T15:36:45;98815.63;;;26.87;41.52
25638;BME280;13496;51.040;13.680;2023-07-29T15:41:47;98830.28;;;26.89;41.64
25638;BME280;13496;51.040;13.680;2023-07-29T15:46:49;98828.41;;;26.95;41.94
25638;BME280;13496;51.040;13.680;2023-07-29T15:51:53;98815.63;;;26.97;41.88
25638;BME280;13496;51.040;13.680;2023-07-29T15:56:54;98830.25;;;26.99;41.55
25638;BME280;13496;51.040;13.680;2023-07-29T16:01:56;98843.06;;;26.97;41.76
25638;BME280;13496;51.040;13.680;2023-07-29T16:06:58;98848.66;;;26.96;41.32
25638;BME280;13496;51.040;13.680;2023-07-29T16:12:00;98857.44;;;26.96;41.67
25638;BME280;13496;51.040;13.680;2023-07-29T16:17:03;98860.06;;;26.91;41.56
25638;BME280;13496;51.040;13.680;2023-07-29T16:22:05;98871.28;;;26.93;41.26
25638;BME280;13496;51.040;13.680;2023-07-29T16:27:06;98872.63;;;26.96;41.67
25638;BME280;13496;51.040;13.680;2023-07-29T16:32:08;98883.78;;;26.98;41.45
25638;BME280;13496;51.040;13.680;2023-07-29T16:37:10;98974.03;;;26.99;41.83
25638;BME280;13496;51.040;13.680;2023-07-29T16:42:12;99010.53;;;26.99;41.90
25638;BME280;13496;51.040;13.680;2023-07-29T16:47:13;99017.19;;;26.96;41.71
25638;BME280;13496;51.040;13.680;2023-07-29T16:52:15;99023.56;;;26.95;41.56
25638;BME280;13496;51.040;13.680;2023-07-29T16:57:17;99035.81;;;26.96;41.81
25638;BME280;13496;51.040;13.680;2023-07-29T17:02:19;99052.28;;;26.88;41.65
25638;BME280;13496;51.040;13.680;2023-07-29T17:07:20;99059.50;;;26.93;41.05
25638;BME280;13496;51.040;13.680;2023-07-29T17:12:22;99042.44;;;26.89;41.68
25638;BME280;13496;51.040;13.680;2023-07-29T17:17:24;99030.41;;;26.76;41.92
25638;BME280;13496;51.040;13.680;2023-07-29T17:22:26;99003.81;;;26.81;41.83
25638;BME280;13496;51.040;13.680;2023-07-29T17:27:29;99013.41;;;26.82;41.74
25638;BME280;13496;51.040;13.680;2023-07-29T17:32:30;99032.56;;;26.79;42.07
25638;BME280;13496;51.040;13.680;2023-07-29T17:37:32;99046.38;;;26.71;42.63
25638;BME280;13496;51.040;13.680;2023-07-29T17:42:36;99037.03;;;26.68;42.65
25638;BME280;13496;51.040;13.680;2023-07-29T17:47:37;99029.56;;;26.65;43.01
25638;BME280;13496;51.040;13.680;2023-07-29T17:52:40;99024.50;;;26.64;42.72
25638;BME280;13496;51.040;13.680;2023-07-29T17:57:42;99028.22;;;26.63;42.84
25638;BME280;13496;51.040;13.680;2023-07-29T18:02:43;99023.94;;;26.62;43.00
25638;BME280;13496;51.040;13.680;2023-07-29T18:07:45;99025.28;;;26.59;43.46
25638;BME280;13496;51.040;13.680;2023-07-29T18:12:47;99021.00;;;26.58;43.86
25638;BME280;13496;51.040;13.680;2023-07-29T18:17:49;99034.03;;;26.54;43.88
25638;BME280;13496;51.040;13.680;2023-07-29T18:22:50;99037.22;;;26.51;44.06
25638;BME280;13496;51.040;13.680;2023-07-29T18:27:52;99051.84;;;26.49;44.16
25638;BME280;13496;51.040;13.680;2023-07-29T18:32:54;99057.41;;;26.47;44.60
25638;BME280;13496;51.040;13.680;2023-07-29T18:37:56;99061.91;;;26.47;44.32
25638;BME280;13496;51.040;13.680;2023-07-29T18:43:01;99046.19;;;26.45;44.70
25638;BME280;13496;51.040;13.680;2023-07-29T18:48:03;99035.00;;;26.43;44.68
25638;BME280;13496;51.040;13.680;2023-07-29T18:53:05;99031.25;;;26.39;44.74
25638;BME280;13496;51.040;13.680;2023-07-29T18:58:07;99049.34;;;26.37;44.58
25638;BME280;13496;51.040;13.680;2023-07-29T19:03:08;99051.22;;;26.37;44.16
25638;BME280;13496;51.040;13.680;2023-07-29T19:08:10;99042.66;;;26.35;44.24
25638;BME280;13496;51.040;13.680;2023-07-29T19:13:12;99024.06;;;26.35;44.00
25638;BME280;13496;51.040;13.680;2023-07-29T19:18:14;99018.22;;;26.38;43.80
25638;BME280;13496;51.040;13.680;2023-07-29T19:23:16;99018.47;;;26.36;43.72
25638;BME280;13496;51.040;13.680;2023-07-29T19:28:18;99028.56;;;26.34;44.11
25638;BME280;13496;51.040;13.680;2023-07-29T19:33:20;99032.59;;;26.37;43.66
25638;BME280;13496;51.040;13.680;2023-07-29T19:38:22;99037.34;;;26.35;44.08
25638;BME280;13496;51.040;13.680;2023-07-29T19:43:24;99034.69;;;26.35;43.68
25638;BME280;13496;51.040;13.680;2023-07-29T19:48:26;99041.88;;;26.34;43.62
25638;BME280;13496;51.040;13.680;2023-07-29T19:53:28;99045.59;;;26.33;43.69
25638;BME280;13496;51.040;13.680;2023-07-29T19:58:31;99051.16;;;26.31;43.94
25638;BME280;13496;51.040;13.680;2023-07-29T20:03:33;99059.13;;;26.31;43.30
25638;BME280;13496;51.040;13.680;2023-07-29T20:08:35;99055.13;;;26.29;43.62
25638;BME280;13496;51.040;13.680;2023-07-29T20:13:36;99056.75;;;26.30;43.16
25638;BME280;13496;51.040;13.680;2023-07-29T20:18:38;99071.06;;;26.29;43.34
25638;BME280;13496;51.040;13.680;2023-07-29T20:23:40;99065.75;;;26.29;43.15
25638;BME280;13496;51.040;13.680;2023-07-29T20:28:41;99071.91;;;26.29;42.95
25638;BME280;13496;51.040;13.680;2023-07-29T20:33:43;99075.06;;;26.26;43.27
25638;BME280;13496;51.040;13.680;2023-07-29T20:38:45;99073.22;;;26.27;43.15
25638;BME280;13496;51.040;13.680;2023-07-29T20:43:47;99084.34;;;26.24;42.94
25638;BME280;13496;51.040;13.680;2023-07-29T20:48:49;99083.81;;;26.22;42.91
25638;BME280;13496;51.040;13.680;2023-07-29T20:53:50;99094.47;;;26.22;42.89
25638;BME280;13496;51.040;13.680;2023-07-29T20:58:52;99103.72;;;26.19;42.69
25638;BME280;13496;51.040;13.680;2023-07-29T21:03:54;99102.94;;;26.19;42.65
25638;BME280;13496;51.040;13.680;2023-07-29T21:08:56;99090.69;;;26.18;42.87
25638;BME280;13496;51.040;13.680;2023-07-29T21:13:57;99096.00;;;26.18;42.80
25638;BME280;13496;51.040;13.680;2023-07-29T21:18:59;99105.53;;;26.14;42.32
25638;BME280;13496;51.040;13.680;2023-07-29T21:24:01;99107.41;;;26.13;42.58
25638;BME280;13496;51.040;13.680;2023-07-29T21:29:02;99114.03;;;26.11;42.58
25638;BME280;13496;51.040;13.680;2023-07-29T21:34:04;99100.47;;;26.07;42.15
25638;BME280;13496;51.040;13.680;2023-07-29T21:39:06;99107.38;;;26.08;42.80
25638;BME280;13496;51.040;13.680;2023-07-29T21:44:07;99099.13;;;26.10;42.62
25638;BME280;13496;51.040;13.680;2023-07-29T21:49:10;99096.16;;;26.06;42.65
25638;BME280;13496;51.040;13.680;2023-07-29T21:54:11;99094.56;;;26.05;42.48
25638;BME280;13496;51.040;13.680;2023-07-29T21:59:13;99096.66;;;26.03;42.11
25638;BME280;13496;51.040;13.680;2023-07-29T22:04:15;99098.53;;;26.02;42.67
25638;BME280;13496;51.040;13.680;2023-07-29T22:09:16;99084.72;;;26.00;42.48
25638;BME280;13496;51.040;13.680;2023-07-29T22:14:18;99102.53;;;26.00;42.25
25638;BME280;13496;51.040;13.680;2023-07-29T22:19:21;99100.91;;;25.99;42.42
25638;BME280;13496;51.040;13.680;2023-07-29T22:24:22;99099.56;;;25.96;42.59
25638;BME280;13496;51.040;13.680;2023-07-29T22:29:24;99110.19;;;25.96;42.54
25638;BME280;13496;51.040;13.680;2023-07-29T22:34:26;99112.28;;;25.94;42.76
25638;BME280;13496;51.040;13.680;2023-07-29T22:39:28;99102.16;;;25.91;42.29
25638;BME280;13496;51.040;13.680;2023-07-29T22:44:29;99112.78;;;25.91;42.42
25638;BME280;13496;51.040;13.680;2023-07-29T22:49:31;99123.44;;;25.91;42.61
25638;BME280;13496;51.040;13.680;2023-07-29T22:54:33;99118.59;;;25.88;42.80
25638;BME280;13496;51.040;13.680;2023-07-29T22:59:34;99118.06;;;25.86;42.34
25638;BME280;13496;51.040;13.680;2023-07-29T23:04:36;99120.72;;;25.86;42.56
25638;BME280;13496;51.040;13.680;2023-07-29T23:09:38;99127.09;;;25.85;42.45
25638;BME280;13496;51.040;13.680;2023-07-29T23:14:39;99136.38;;;25.82;42.34
25638;BME280;13496;51.040;13.680;2023-07-29T23:19:41;99141.94;;;25.81;42.81
25638;BME280;13496;51.040;13.680;2023-07-29T23:24:43;99144.59;;;25.81;42.66
25638;BME280;13496;51.040;13.680;2023-07-29T23:29:44;99141.38;;;25.79;42.76
25638;BME280;13496;51.040;13.680;2023-07-29T23:34:46;99138.72;;;25.79;42.35
25638;BME280;13496;51.040;13.680;2023-07-29T23:39:53;99128.56;;;25.76;42.68
25638;BME280;13496;51.040;13.680;2023-07-29T23:44:54;99131.22;;;25.76;42.46
25638;BME280;13496;51.040;13.680;2023-07-29T23:49:56;99128.03;;;25.74;42.71
25638;BME280;13496;51.040;13.680;2023-07-29T23:54:58;99123.75;;;25.73;42.75
25638;BME280;13496;51.040;13.680;2023-07-29T23:59:59;99117.91;;;25.71;42.77
